Terminal Aerodrome Forecast
Issued by NWS

Home | Current Version | Previous Version | Text Only | Print | Product List | Glossary On
Versions: 1 2 3 4 5 6 7 8 9 10 11 12 13
000
FTUS42 KMLB 291130
TAFLEE
TAF
KLEE 291130Z 2912/3012 05004KT P6SM SKC
     FM291500 08008KT P6SM SCT035
     FM291800 08010KT P6SM SCT045
     FM300100 08006KT P6SM FEW045
     FM300600 05003KT P6SM FEW040=

USA.gov is the U.S. government's official web portal to all federal, state and local government web resources and services.